sensor_id;sensor_type;location;lat;lon;timestamp;temperature;humidity
65460;DHT22;52058;49.822;6.754;2023-08-20T00:00:10;18.72;99.99
65460;DHT22;52058;49.822;6.754;2023-08-20T00:02:37;18.69;99.99
65460;DHT22;52058;49.822;6.754;2023-08-20T00:05:06;18.67;99.99
65460;DHT22;52058;49.822;6.754;2023-08-20T00:07:34;18.61;99.99
65460;DHT22;52058;49.822;6.754;2023-08-20T00:10:01;18.55;99.99
65460;DHT22;52058;49.822;6.754;2023-08-20T00:12:30;18.51;99.99
65460;DHT22;52058;49.822;6.754;2023-08-20T00:14:58;18.48;99.99
65460;DHT22;52058;49.822;6.754;2023-08-20T00:17:31;18.41;99.99
65460;DHT22;52058;49.822;6.754;2023-08-20T00:19:58;18.40;99.99
65460;DHT22;52058;49.822;6.754;2023-08-20T00:22:25;18.37;99.99
65460;DHT22;52058;49.822;6.754;2023-08-20T00:24:53;18.37;99.99
65460;DHT22;52058;49.822;6.754;2023-08-20T00:27:20;18.31;99.99
65460;DHT22;52058;49.822;6.754;2023-08-20T00:29:48;18.34;99.99
65460;DHT22;52058;49.822;6.754;2023-08-20T00:32:15;18.29;99.99
65460;DHT22;52058;49.822;6.754;2023-08-20T00:34:42;18.24;99.99
65460;DHT22;52058;49.822;6.754;2023-08-20T00:37:08;18.18;99.99
65460;DHT22;52058;49.822;6.754;2023-08-20T00:39:35;18.13;99.99
65460;DHT22;52058;49.822;6.754;2023-08-20T00:42:02;18.12;99.99
65460;DHT22;52058;49.822;6.754;2023-08-20T00:44:30;18.06;99.99
65460;DHT22;52058;49.822;6.754;2023-08-20T00:46:59;18.04;99.99
65460;DHT22;52058;49.822;6.754;2023-08-20T00:49:26;18.00;99.99
65460;DHT22;52058;49.822;6.754;2023-08-20T00:51:53;18.00;99.99
65460;DHT22;52058;49.822;6.754;2023-08-20T00:54:20;18.00;99.99
65460;DHT22;52058;49.822;6.754;2023-08-20T00:56:49;17.97;99.99
65460;DHT22;52058;49.822;6.754;2023-08-20T00:59:16;17.96;99.99
65460;DHT22;52058;49.822;6.754;2023-08-20T01:01:43;17.94;99.99
65460;DHT22;52058;49.822;6.754;2023-08-20T01:04:11;17.92;99.99
65460;DHT22;52058;49.822;6.754;2023-08-20T01:06:44;17.89;99.99
65460;DHT22;52058;49.822;6.754;2023-08-20T01:09:19;17.83;99.99
65460;DHT22;52058;49.822;6.754;2023-08-20T01:11:54;17.78;99.99
65460;DHT22;52058;49.822;6.754;2023-08-20T01:14:21;17.81;99.99
65460;DHT22;52058;49.822;6.754;2023-08-20T01:16:47;17.83;99.99
65460;DHT22;52058;49.822;6.754;2023-08-20T01:19:17;17.76;99.99
65460;DHT22;52058;49.822;6.754;2023-08-20T01:21:56;17.75;99.99
65460;DHT22;52058;49.822;6.754;2023-08-20T01:24:40;17.71;99.99
65460;DHT22;52058;49.822;6.754;2023-08-20T01:27:19;17.71;99.99
65460;DHT22;52058;49.822;6.754;2023-08-20T01:29:55;17.69;99.99
65460;DHT22;52058;49.822;6.754;2023-08-20T01:32:22;17.66;99.99
65460;DHT22;52058;49.822;6.754;2023-08-20T01:34:49;17.68;99.99
65460;DHT22;52058;49.822;6.754;2023-08-20T01:37:15;17.68;99.99
65460;DHT22;52058;49.822;6.754;2023-08-20T01:39:42;17.66;99.99
65460;DHT22;52058;49.822;6.754;2023-08-20T01:42:09;17.66;99.99
65460;DHT22;52058;49.822;6.754;2023-08-20T01:44:36;17.65;99.99
65460;DHT22;52058;49.822;6.754;2023-08-20T01:47:05;17.68;99.99
65460;DHT22;52058;49.822;6.754;2023-08-20T01:49:31;17.68;99.99
65460;DHT22;52058;49.822;6.754;2023-08-20T01:51:58;17.68;99.99
65460;DHT22;52058;49.822;6.754;2023-08-20T01:54:24;17.71;99.99
65460;DHT22;52058;49.822;6.754;2023-08-20T01:56:51;17.65;99.99
65460;DHT22;52058;49.822;6.754;2023-08-20T01:59:18;17.63;99.99
65460;DHT22;52058;49.822;6.754;2023-08-20T02:01:45;17.56;99.99
65460;DHT22;52058;49.822;6.754;2023-08-20T02:04:12;17.54;99.99
65460;DHT22;52058;49.822;6.754;2023-08-20T02:06:39;17.51;99.99
65460;DHT22;52058;49.822;6.754;2023-08-20T02:09:05;17.52;99.99
65460;DHT22;52058;49.822;6.754;2023-08-20T02:11:32;17.49;99.99
65460;DHT22;52058;49.822;6.754;2023-08-20T02:14:01;17.42;99.99
65460;DHT22;52058;49.822;6.754;2023-08-20T02:16:27;17.42;99.99
65460;DHT22;52058;49.822;6.754;2023-08-20T02:18:54;17.42;99.99
65460;DHT22;52058;49.822;6.754;2023-08-20T02:21:22;17.39;99.99
65460;DHT22;52058;49.822;6.754;2023-08-20T02:23:48;17.38;99.99
65460;DHT22;52058;49.822;6.754;2023-08-20T02:26:15;17.35;99.99
65460;DHT22;52058;49.822;6.754;2023-08-20T02:28:42;17.35;99.99
65460;DHT22;52058;49.822;6.754;2023-08-20T02:31:08;17.32;99.99
65460;DHT22;52058;49.822;6.754;2023-08-20T02:33:35;17.25;99.99
65460;DHT22;52058;49.822;6.754;2023-08-20T02:36:02;17.32;99.99
65460;DHT22;52058;49.822;6.754;2023-08-20T02:38:30;17.23;99.99
65460;DHT22;52058;49.822;6.754;2023-08-20T02:40:57;17.21;99.99
65460;DHT22;52058;49.822;6.754;2023-08-20T02:43:24;17.18;99.99
65460;DHT22;52058;49.822;6.754;2023-08-20T02:45:50;17.20;99.99
65460;DHT22;52058;49.822;6.754;2023-08-20T02:48:17;17.21;99.99
65460;DHT22;52058;49.822;6.754;2023-08-20T02:50:44;17.24;99.99
65460;DHT22;52058;49.822;6.754;2023-08-20T02:53:11;17.23;99.99
65460;DHT22;52058;49.822;6.754;2023-08-20T02:55:39;17.27;99.99
65460;DHT22;52058;49.822;6.754;2023-08-20T02:58:05;17.31;99.99
65460;DHT22;52058;49.822;6.754;2023-08-20T03:00:34;17.36;99.99
65460;DHT22;52058;49.822;6.754;2023-08-20T03:03:01;17.39;99.99
65460;DHT22;52058;49.822;6.754;2023-08-20T03:05:29;17.39;99.99
65460;DHT22;52058;49.822;6.754;2023-08-20T03:07:55;17.42;99.99
65460;DHT22;52058;49.822;6.754;2023-08-20T03:10:22;17.48;99.99
65460;DHT22;52058;49.822;6.754;2023-08-20T03:12:50;17.51;99.99
65460;DHT22;52058;49.822;6.754;2023-08-20T03:15:16;17.54;99.99
65460;DHT22;52058;49.822;6.754;2023-08-20T03:17:43;17.62;99.99
65460;DHT22;52058;49.822;6.754;2023-08-20T03:20:10;17.62;99.99
65460;DHT22;52058;49.822;6.754;2023-08-20T03:22:38;17.66;99.99
65460;DHT22;52058;49.822;6.754;2023-08-20T03:25:05;17.71;99.99
65460;DHT22;52058;49.822;6.754;2023-08-20T03:27:31;17.71;99.99
65460;DHT22;52058;49.822;6.754;2023-08-20T03:29:59;17.73;99.99
65460;DHT22;52058;49.822;6.754;2023-08-20T03:32:26;17.76;99.99
65460;DHT22;52058;49.822;6.754;2023-08-20T03:34:53;17.79;99.99
65460;DHT22;52058;49.822;6.754;2023-08-20T03:37:21;17.79;99.99
65460;DHT22;52058;49.822;6.754;2023-08-20T03:39:48;17.83;99.99
65460;DHT22;52058;49.822;6.754;2023-08-20T03:42:14;17.82;99.99
65460;DHT22;52058;49.822;6.754;2023-08-20T03:44:41;17.85;99.99
65460;DHT22;52058;49.822;6.754;2023-08-20T03:47:09;17.87;99.99
65460;DHT22;52058;49.822;6.754;2023-08-20T03:49:35;17.89;99.99
65460;DHT22;52058;49.822;6.754;2023-08-20T03:52:02;17.92;99.99
65460;DHT22;52058;49.822;6.754;2023-08-20T03:54:29;17.92;99.99
65460;DHT22;52058;49.822;6.754;2023-08-20T03:56:56;17.99;99.99
65460;DHT22;52058;49.822;6.754;2023-08-20T03:59:22;18.02;99.99
65460;DHT22;52058;49.822;6.754;2023-08-20T04:01:49;18.03;99.99
65460;DHT22;52058;49.822;6.754;2023-08-20T04:04:17;18.02;99.99
65460;DHT22;52058;49.822;6.754;2023-08-20T04:06:44;18.03;99.99
65460;DHT22;52058;49.822;6.754;2023-08-20T04:09:10;18.00;99.99
65460;DHT22;52058;49.822;6.754;2023-08-20T04:11:37;18.09;99.99
65460;DHT22;52058;49.822;6.754;2023-08-20T04:14:03;18.07;99.99
65460;DHT22;52058;49.822;6.754;2023-08-20T04:16:30;18.07;99.99
65460;DHT22;52058;49.822;6.754;2023-08-20T04:18:56;18.13;99.99
65460;DHT22;52058;49.822;6.754;2023-08-20T04:21:24;18.16;99.99
65460;DHT22;52058;49.822;6.754;2023-08-20T04:23:51;18.22;99.99
65460;DHT22;52058;49.822;6.754;2023-08-20T04:26:17;18.22;99.99
65460;DHT22;52058;49.822;6.754;2023-08-20T04:28:44;18.18;99.99
65460;DHT22;52058;49.822;6.754;2023-08-20T04:31:11;18.22;99.99
65460;DHT22;52058;49.822;6.754;2023-08-20T04:33:37;18.23;99.99
65460;DHT22;52058;49.822;6.754;2023-08-20T04:36:04;18.30;99.99
65460;DHT22;52058;49.822;6.754;2023-08-20T04:38:32;18.24;99.99
65460;DHT22;52058;49.822;6.754;2023-08-20T04:40:59;18.27;99.99
65460;DHT22;52058;49.822;6.754;2023-08-20T04:43:25;18.34;99.99
65460;DHT22;52058;49.822;6.754;2023-08-20T04:45:52;18.34;99.99
65460;DHT22;52058;49.822;6.754;2023-08-20T04:48:18;18.34;99.99
65460;DHT22;52058;49.822;6.754;2023-08-20T04:50:46;18.37;99.99
65460;DHT22;52058;49.822;6.754;2023-08-20T04:53:13;18.38;99.99
65460;DHT22;52058;49.822;6.754;2023-08-20T04:55:41;18.40;99.99
65460;DHT22;52058;49.822;6.754;2023-08-20T04:58:08;18.44;99.99
65460;DHT22;52058;49.822;6.754;2023-08-20T05:00:34;18.50;99.99
65460;DHT22;52058;49.822;6.754;2023-08-20T05:03:01;18.50;99.99
65460;DHT22;52058;49.822;6.754;2023-08-20T05:05:27;18.52;99.99
65460;DHT22;52058;49.822;6.754;2023-08-20T05:07:54;18.51;99.99
65460;DHT22;52058;49.822;6.754;2023-08-20T05:10:20;18.52;99.99
65460;DHT22;52058;49.822;6.754;2023-08-20T05:12:48;18.52;99.99
65460;DHT22;52058;49.822;6.754;2023-08-20T05:15:15;18.45;99.99
65460;DHT22;52058;49.822;6.754;2023-08-20T05:17:42;18.43;99.99
65460;DHT22;52058;49.822;6.754;2023-08-20T05:20:09;18.44;99.99
65460;DHT22;52058;49.822;6.754;2023-08-20T05:22:36;18.43;99.99
65460;DHT22;52058;49.822;6.754;2023-08-20T05:25:02;18.44;99.99
65460;DHT22;52058;49.822;6.754;2023-08-20T05:27:29;18.54;99.99
65460;DHT22;52058;49.822;6.754;2023-08-20T05:29:57;18.62;99.99
65460;DHT22;52058;49.822;6.754;2023-08-20T05:32:23;18.69;99.99
65460;DHT22;52058;49.822;6.754;2023-08-20T05:34:50;18.82;99.99
65460;DHT22;52058;49.822;6.754;2023-08-20T05:37:16;18.92;99.99
65460;DHT22;52058;49.822;6.754;2023-08-20T05:39:43;19.01;99.87
65460;DHT22;52058;49.822;6.754;2023-08-20T05:42:10;19.09;99.63
65460;DHT22;52058;49.822;6.754;2023-08-20T05:44:37;19.18;99.50
65460;DHT22;52058;49.822;6.754;2023-08-20T05:47:05;19.10;99.45
65460;DHT22;52058;49.822;6.754;2023-08-20T05:49:31;19.06;99.49
65460;DHT22;52058;49.822;6.754;2023-08-20T05:51:58;19.05;99.80
65460;DHT22;52058;49.822;6.754;2023-08-20T05:54:25;19.05;99.99
65460;DHT22;52058;49.822;6.754;2023-08-20T05:56:51;19.09;99.99
65460;DHT22;52058;49.822;6.754;2023-08-20T05:59:18;19.06;99.99
65460;DHT22;52058;49.822;6.754;2023-08-20T06:01:44;19.05;99.99
65460;DHT22;52058;49.822;6.754;2023-08-20T06:04:12;19.10;99.91
65460;DHT22;52058;49.822;6.754;2023-08-20T06:06:39;19.09;99.97
65460;DHT22;52058;49.822;6.754;2023-08-20T06:09:05;19.09;99.64
65460;DHT22;52058;49.822;6.754;2023-08-20T06:11:32;19.08;99.82
65460;DHT22;52058;49.822;6.754;2023-08-20T06:13:59;19.10;99.86
65460;DHT22;52058;49.822;6.754;2023-08-20T06:16:25;19.09;99.99
65460;DHT22;52058;49.822;6.754;2023-08-20T06:18:52;19.16;99.99
65460;DHT22;52058;49.822;6.754;2023-08-20T06:21:20;19.23;99.99
65460;DHT22;52058;49.822;6.754;2023-08-20T06:23:46;19.24;99.99
65460;DHT22;52058;49.822;6.754;2023-08-20T06:26:13;19.24;99.31
65460;DHT22;52058;49.822;6.754;2023-08-20T06:28:39;19.29;99.09
65460;DHT22;52058;49.822;6.754;2023-08-20T06:31:06;19.31;99.18
65460;DHT22;52058;49.822;6.754;2023-08-20T06:33:32;19.36;99.24
65460;DHT22;52058;49.822;6.754;2023-08-20T06:35:59;19.41;99.15
65460;DHT22;52058;49.822;6.754;2023-08-20T06:38:27;19.47;98.77
65460;DHT22;52058;49.822;6.754;2023-08-20T06:40:53;19.50;98.81
65460;DHT22;52058;49.822;6.754;2023-08-20T06:43:20;19.60;98.89
65460;DHT22;52058;49.822;6.754;2023-08-20T06:45:46;19.64;98.44
65460;DHT22;52058;49.822;6.754;2023-08-20T06:48:13;19.70;97.92
65460;DHT22;52058;49.822;6.754;2023-08-20T06:50:41;19.75;98.16
65460;DHT22;52058;49.822;6.754;2023-08-20T06:53:08;19.82;98.44
65460;DHT22;52058;49.822;6.754;2023-08-20T06:55:36;19.94;98.36
65460;DHT22;52058;49.822;6.754;2023-08-20T06:58:03;20.01;97.91
65460;DHT22;52058;49.822;6.754;2023-08-20T07:00:30;20.02;97.79
65460;DHT22;52058;49.822;6.754;2023-08-20T07:02:56;20.07;98.13
65460;DHT22;52058;49.822;6.754;2023-08-20T07:05:23;20.14;98.66
65460;DHT22;52058;49.822;6.754;2023-08-20T07:07:49;20.21;98.29
65460;DHT22;52058;49.822;6.754;2023-08-20T07:10:16;20.24;98.24
65460;DHT22;52058;49.822;6.754;2023-08-20T07:12:44;20.28;98.55
65460;DHT22;52058;49.822;6.754;2023-08-20T07:15:10;20.38;98.41
65460;DHT22;52058;49.822;6.754;2023-08-20T07:17:37;20.36;98.25
65460;DHT22;52058;49.822;6.754;2023-08-20T07:20:06;20.40;98.29
65460;DHT22;52058;49.822;6.754;2023-08-20T07:22:32;20.48;98.12
65460;DHT22;52058;49.822;6.754;2023-08-20T07:24:59;20.56;98.03
65460;DHT22;52058;49.822;6.754;2023-08-20T07:27:26;20.65;98.05
65460;DHT22;52058;49.822;6.754;2023-08-20T07:29:54;20.70;98.11
65460;DHT22;52058;49.822;6.754;2023-08-20T07:32:20;20.76;98.19
65460;DHT22;52058;49.822;6.754;2023-08-20T07:34:47;20.86;98.01
65460;DHT22;52058;49.822;6.754;2023-08-20T07:37:14;20.97;97.89
65460;DHT22;52058;49.822;6.754;2023-08-20T07:39:40;21.03;97.25
65460;DHT22;52058;49.822;6.754;2023-08-20T07:42:07;21.20;96.91
65460;DHT22;52058;49.822;6.754;2023-08-20T07:44:33;21.24;96.63
65460;DHT22;52058;49.822;6.754;2023-08-20T07:47:01;21.31;96.42
65460;DHT22;52058;49.822;6.754;2023-08-20T07:49:28;21.42;96.33
65460;DHT22;52058;49.822;6.754;2023-08-20T07:51:54;21.45;95.81
65460;DHT22;52058;49.822;6.754;2023-08-20T07:54:21;21.54;95.69
65460;DHT22;52058;49.822;6.754;2023-08-20T07:56:48;21.65;95.23
65460;DHT22;52058;49.822;6.754;2023-08-20T07:59:14;21.73;95.39
65460;DHT22;52058;49.822;6.754;2023-08-20T08:01:40;21.81;94.72
65460;DHT22;52058;49.822;6.754;2023-08-20T08:04:08;21.92;93.90
65460;DHT22;52058;49.822;6.754;2023-08-20T08:06:35;22.02;94.28
65460;DHT22;52058;49.822;6.754;2023-08-20T08:09:19;22.10;94.23
65460;DHT22;52058;49.822;6.754;2023-08-20T08:11:46;22.17;94.26
65460;DHT22;52058;49.822;6.754;2023-08-20T08:14:13;22.20;93.90
65460;DHT22;52058;49.822;6.754;2023-08-20T08:16:40;22.25;93.83
65460;DHT22;52058;49.822;6.754;2023-08-20T08:19:06;22.34;93.36
65460;DHT22;52058;49.822;6.754;2023-08-20T08:21:34;22.45;92.58
65460;DHT22;52058;49.822;6.754;2023-08-20T08:24:01;22.50;92.01
65460;DHT22;52058;49.822;6.754;2023-08-20T08:26:27;22.55;92.37
65460;DHT22;52058;49.822;6.754;2023-08-20T08:28:54;22.60;92.24
65460;DHT22;52058;49.822;6.754;2023-08-20T08:31:21;22.61;91.82
65460;DHT22;52058;49.822;6.754;2023-08-20T08:33:47;22.71;91.37
65460;DHT22;52058;49.822;6.754;2023-08-20T08:36:14;22.78;91.95
65460;DHT22;52058;49.822;6.754;2023-08-20T08:38:43;22.81;91.33
65460;DHT22;52058;49.822;6.754;2023-08-20T08:41:11;22.85;90.74
65460;DHT22;52058;49.822;6.754;2023-08-20T08:43:38;22.90;90.60
65460;DHT22;52058;49.822;6.754;2023-08-20T08:46:06;22.99;90.53
65460;DHT22;52058;49.822;6.754;2023-08-20T08:48:33;23.02;90.00
65460;DHT22;52058;49.822;6.754;2023-08-20T08:51:02;23.12;90.58
65460;DHT22;52058;49.822;6.754;2023-08-20T08:53:30;23.18;90.97
65460;DHT22;52058;49.822;6.754;2023-08-20T08:55:58;23.23;89.20
65460;DHT22;52058;49.822;6.754;2023-08-20T08:58:25;23.26;89.57
65460;DHT22;52058;49.822;6.754;2023-08-20T09:00:52;23.32;89.48
65460;DHT22;52058;49.822;6.754;2023-08-20T09:03:19;23.46;88.76
65460;DHT22;52058;49.822;6.754;2023-08-20T09:05:46;23.51;88.92
65460;DHT22;52058;49.822;6.754;2023-08-20T09:08:19;23.63;88.54
65460;DHT22;52058;49.822;6.754;2023-08-20T09:10:46;23.71;88.62
65460;DHT22;52058;49.822;6.754;2023-08-20T09:13:14;23.81;87.99
65460;DHT22;52058;49.822;6.754;2023-08-20T09:15:40;23.94;87.68
65460;DHT22;52058;49.822;6.754;2023-08-20T09:18:09;23.91;87.85
65460;DHT22;52058;49.822;6.754;2023-08-20T09:20:36;24.11;87.39
65460;DHT22;52058;49.822;6.754;2023-08-20T09:23:03;24.12;86.94
65460;DHT22;52058;49.822;6.754;2023-08-20T09:25:30;24.21;86.49
65460;DHT22;52058;49.822;6.754;2023-08-20T09:27:56;24.26;86.60
65460;DHT22;52058;49.822;6.754;2023-08-20T09:30:24;24.43;86.05
65460;DHT22;52058;49.822;6.754;2023-08-20T09:33:03;24.51;85.65
65460;DHT22;52058;49.822;6.754;2023-08-20T09:35:31;24.51;85.43
65460;DHT22;52058;49.822;6.754;2023-08-20T09:38:01;24.48;83.88
65460;DHT22;52058;49.822;6.754;2023-08-20T09:40:29;24.63;84.97
65460;DHT22;52058;49.822;6.754;2023-08-20T09:42:56;24.80;83.45
65460;DHT22;52058;49.822;6.754;2023-08-20T09:45:25;24.87;83.99
65460;DHT22;52058;49.822;6.754;2023-08-20T09:47:55;25.00;83.97
65460;DHT22;52058;49.822;6.754;2023-08-20T09:50:22;25.11;83.78
65460;DHT22;52058;49.822;6.754;2023-08-20T09:52:57;25.10;81.20
65460;DHT22;52058;49.822;6.754;2023-08-20T09:55:28;25.28;81.96
65460;DHT22;52058;49.822;6.754;2023-08-20T09:57:56;25.24;81.45
65460;DHT22;52058;49.822;6.754;2023-08-20T10:00:24;25.20;81.28
65460;DHT22;52058;49.822;6.754;2023-08-20T10:02:51;25.21;82.05
65460;DHT22;52058;49.822;6.754;2023-08-20T10:05:19;25.34;82.42
65460;DHT22;52058;49.822;6.754;2023-08-20T10:07:47;25.24;82.02
65460;DHT22;52058;49.822;6.754;2023-08-20T10:10:13;25.25;82.84
65460;DHT22;52058;49.822;6.754;2023-08-20T10:12:43;25.34;81.03
65460;DHT22;52058;49.822;6.754;2023-08-20T10:15:11;25.45;79.28
65460;DHT22;52058;49.822;6.754;2023-08-20T10:17:41;25.45;80.70
65460;DHT22;52058;49.822;6.754;2023-08-20T10:20:09;25.46;79.83
65460;DHT22;52058;49.822;6.754;2023-08-20T10:22:37;25.44;80.44
65460;DHT22;52058;49.822;6.754;2023-08-20T10:25:06;25.44;80.85
65460;DHT22;52058;49.822;6.754;2023-08-20T10:27:35;25.61;80.74
65460;DHT22;52058;49.822;6.754;2023-08-20T10:30:08;25.61;79.26
65460;DHT22;52058;49.822;6.754;2023-08-20T10:32:48;25.73;79.48
65460;DHT22;52058;49.822;6.754;2023-08-20T10:35:16;25.69;79.96
65460;DHT22;52058;49.822;6.754;2023-08-20T10:38:02;25.59;79.26
65460;DHT22;52058;49.822;6.754;2023-08-20T10:40:48;25.71;78.32
65460;DHT22;52058;49.822;6.754;2023-08-20T10:43:26;25.73;78.69
65460;DHT22;52058;49.822;6.754;2023-08-20T10:46:05;25.75;79.16
65460;DHT22;52058;49.822;6.754;2023-08-20T10:48:34;25.83;79.96
65460;DHT22;52058;49.822;6.754;2023-08-20T10:51:09;25.96;80.32
65460;DHT22;52058;49.822;6.754;2023-08-20T10:53:36;25.97;76.80
65460;DHT22;52058;49.822;6.754;2023-08-20T10:56:13;25.92;76.75
65460;DHT22;52058;49.822;6.754;2023-08-20T10:58:44;26.03;76.22
65460;DHT22;52058;49.822;6.754;2023-08-20T11:01:16;26.20;74.64
65460;DHT22;52058;49.822;6.754;2023-08-20T11:03:45;26.13;72.32
65460;DHT22;52058;49.822;6.754;2023-08-20T11:06:14;26.19;74.48
65460;DHT22;52058;49.822;6.754;2023-08-20T11:08:41;26.26;73.04
65460;DHT22;52058;49.822;6.754;2023-08-20T11:11:08;26.29;70.96
65460;DHT22;52058;49.822;6.754;2023-08-20T11:13:35;26.44;72.02
65460;DHT22;52058;49.822;6.754;2023-08-20T11:16:03;26.58;72.05
65460;DHT22;52058;49.822;6.754;2023-08-20T11:18:31;26.64;72.66
65460;DHT22;52058;49.822;6.754;2023-08-20T11:21:00;26.62;70.96
65460;DHT22;52058;49.822;6.754;2023-08-20T11:23:28;26.60;69.27
65460;DHT22;52058;49.822;6.754;2023-08-20T11:25:55;26.60;69.37
65460;DHT22;52058;49.822;6.754;2023-08-20T11:28:22;26.95;69.89
65460;DHT22;52058;49.822;6.754;2023-08-20T11:30:49;26.94;68.79
65460;DHT22;52058;49.822;6.754;2023-08-20T11:33:16;27.03;66.72
65460;DHT22;52058;49.822;6.754;2023-08-20T11:35:43;27.16;69.22
65460;DHT22;52058;49.822;6.754;2023-08-20T11:38:12;27.30;69.38
65460;DHT22;52058;49.822;6.754;2023-08-20T11:40:38;27.53;66.30
65460;DHT22;52058;49.822;6.754;2023-08-20T11:43:05;27.80;66.81
65460;DHT22;52058;49.822;6.754;2023-08-20T11:45:31;27.94;66.16
65460;DHT22;52058;49.822;6.754;2023-08-20T11:47:58;27.84;68.20
65460;DHT22;52058;49.822;6.754;2023-08-20T11:50:25;27.80;66.26
65460;DHT22;52058;49.822;6.754;2023-08-20T11:52:53;27.91;68.79
65460;DHT22;52058;49.822;6.754;2023-08-20T11:55:25;27.97;68.01
65460;DHT22;52058;49.822;6.754;2023-08-20T11:57:53;28.01;67.89
65460;DHT22;52058;49.822;6.754;2023-08-20T12:00:24;28.18;66.56
65460;DHT22;52058;49.822;6.754;2023-08-20T12:02:52;28.22;67.35
65460;DHT22;52058;49.822;6.754;2023-08-20T12:05:19;28.37;66.24
65460;DHT22;52058;49.822;6.754;2023-08-20T12:07:54;28.67;67.19
65460;DHT22;52058;49.822;6.754;2023-08-20T12:10:23;29.08;69.27
65460;DHT22;52058;49.822;6.754;2023-08-20T12:12:50;29.27;64.41
65460;DHT22;52058;49.822;6.754;2023-08-20T12:15:17;29.51;64.84
65460;DHT22;52058;49.822;6.754;2023-08-20T12:17:44;29.81;64.19
65460;DHT22;52058;49.822;6.754;2023-08-20T12:20:11;30.06;62.33
65460;DHT22;52058;49.822;6.754;2023-08-20T12:22:37;30.65;62.64
65460;DHT22;52058;49.822;6.754;2023-08-20T12:25:05;31.26;60.65
65460;DHT22;52058;49.822;6.754;2023-08-20T12:27:33;31.65;60.72
65460;DHT22;52058;49.822;6.754;2023-08-20T12:30:00;31.53;60.59
65460;DHT22;52058;49.822;6.754;2023-08-20T12:32:26;31.72;58.64
65460;DHT22;52058;49.822;6.754;2023-08-20T12:34:53;31.51;58.61
65460;DHT22;52058;49.822;6.754;2023-08-20T12:37:19;31.08;59.91
65460;DHT22;52058;49.822;6.754;2023-08-20T12:39:46;30.77;61.12
65460;DHT22;52058;49.822;6.754;2023-08-20T12:42:12;30.57;60.96
65460;DHT22;52058;49.822;6.754;2023-08-20T12:44:40;30.22;61.94
65460;DHT22;52058;49.822;6.754;2023-08-20T12:47:07;30.19;63.68
65460;DHT22;52058;49.822;6.754;2023-08-20T12:49:33;30.34;63.87
65460;DHT22;52058;49.822;6.754;2023-08-20T12:52:00;30.50;62.47
65460;DHT22;52058;49.822;6.754;2023-08-20T12:54:28;30.60;61.14
65460;DHT22;52058;49.822;6.754;2023-08-20T12:56:54;30.98;60.07
65460;DHT22;52058;49.822;6.754;2023-08-20T12:59:21;31.28;59.80
65460;DHT22;52058;49.822;6.754;2023-08-20T13:01:49;31.74;58.77
65460;DHT22;52058;49.822;6.754;2023-08-20T13:04:16;32.16;57.83
65460;DHT22;52058;49.822;6.754;2023-08-20T13:06:43;33.24;57.10
65460;DHT22;52058;49.822;6.754;2023-08-20T13:09:10;34.35;53.19
65460;DHT22;52058;49.822;6.754;2023-08-20T13:11:38;35.81;49.72
65460;DHT22;52058;49.822;6.754;2023-08-20T13:14:05;37.05;48.51
65460;DHT22;52058;49.822;6.754;2023-08-20T13:16:32;37.98;46.69
65460;DHT22;52058;49.822;6.754;2023-08-20T13:19:01;38.51;44.06
65460;DHT22;52058;49.822;6.754;2023-08-20T13:21:28;39.14;43.96
65460;DHT22;52058;49.822;6.754;2023-08-20T13:23:54;39.81;42.58
65460;DHT22;52058;49.822;6.754;2023-08-20T13:26:21;40.01;41.32
65460;DHT22;52058;49.822;6.754;2023-08-20T13:28:47;40.60;41.09
65460;DHT22;52058;49.822;6.754;2023-08-20T13:31:14;40.91;40.65
65460;DHT22;52058;49.822;6.754;2023-08-20T13:33:40;40.91;40.24
65460;DHT22;52058;49.822;6.754;2023-08-20T13:36:09;41.65;40.55
65460;DHT22;52058;49.822;6.754;2023-08-20T13:38:35;42.68;40.43
65460;DHT22;52058;49.822;6.754;2023-08-20T13:41:02;41.88;39.10
65460;DHT22;52058;49.822;6.754;2023-08-20T13:43:28;42.98;38.77
65460;DHT22;52058;49.822;6.754;2023-08-20T13:45:55;43.20;38.13
65460;DHT22;52058;49.822;6.754;2023-08-20T13:48:21;43.86;37.90
65460;DHT22;52058;49.822;6.754;2023-08-20T13:50:48;43.46;37.71
65460;DHT22;52058;49.822;6.754;2023-08-20T13:53:16;43.90;36.76
65460;DHT22;52058;49.822;6.754;2023-08-20T13:55:42;43.81;37.19
65460;DHT22;52058;49.822;6.754;2023-08-20T13:58:09;43.35;37.38
65460;DHT22;52058;49.822;6.754;2023-08-20T14:00:36;42.89;37.78
65460;DHT22;52058;49.822;6.754;2023-08-20T14:03:03;43.76;38.01
65460;DHT22;52058;49.822;6.754;2023-08-20T14:05:29;44.34;37.17
65460;DHT22;52058;49.822;6.754;2023-08-20T14:07:56;44.21;36.38
65460;DHT22;52058;49.822;6.754;2023-08-20T14:10:24;45.16;34.41
65460;DHT22;52058;49.822;6.754;2023-08-20T14:12:51;44.78;35.20
65460;DHT22;52058;49.822;6.754;2023-08-20T14:15:17;44.91;35.13
65460;DHT22;52058;49.822;6.754;2023-08-20T14:17:44;45.06;37.28
65460;DHT22;52058;49.822;6.754;2023-08-20T14:20:11;44.59;36.33
65460;DHT22;52058;49.822;6.754;2023-08-20T14:22:38;45.09;36.29
65460;DHT22;52058;49.822;6.754;2023-08-20T14:25:05;44.82;35.28
65460;DHT22;52058;49.822;6.754;2023-08-20T14:27:33;44.69;35.08
65460;DHT22;52058;49.822;6.754;2023-08-20T14:30:00;44.78;36.07
65460;DHT22;52058;49.822;6.754;2023-08-20T14:32:27;45.24;33.99
65460;DHT22;52058;49.822;6.754;2023-08-20T14:34:54;45.34;34.09
65460;DHT22;52058;49.822;6.754;2023-08-20T14:37:21;45.16;34.67
65460;DHT22;52058;49.822;6.754;2023-08-20T14:39:49;45.19;33.87
65460;DHT22;52058;49.822;6.754;2023-08-20T14:42:15;44.20;34.35
65460;DHT22;52058;49.822;6.754;2023-08-20T14:44:43;44.04;34.80
65460;DHT22;52058;49.822;6.754;2023-08-20T14:47:10;43.93;35.70
65460;DHT22;52058;49.822;6.754;2023-08-20T14:49:36;44.13;35.38
65460;DHT22;52058;49.822;6.754;2023-08-20T14:52:03;44.37;34.24
65460;DHT22;52058;49.822;6.754;2023-08-20T14:54:29;45.14;34.07
65460;DHT22;52058;49.822;6.754;2023-08-20T14:56:56;44.45;34.20
65460;DHT22;52058;49.822;6.754;2023-08-20T14:59:22;44.79;33.82
65460;DHT22;52058;49.822;6.754;2023-08-20T15:01:50;44.72;34.85
65460;DHT22;52058;49.822;6.754;2023-08-20T15:04:17;43.74;35.11
65460;DHT22;52058;49.822;6.754;2023-08-20T15:06:43;44.14;34.33
65460;DHT22;52058;49.822;6.754;2023-08-20T15:09:10;44.13;34.56
65460;DHT22;52058;49.822;6.754;2023-08-20T15:11:40;44.64;35.00
65460;DHT22;52058;49.822;6.754;2023-08-20T15:14:07;44.82;34.30
65460;DHT22;52058;49.822;6.754;2023-08-20T15:16:34;45.56;34.19
65460;DHT22;52058;49.822;6.754;2023-08-20T15:19:01;45.34;34.15
65460;DHT22;52058;49.822;6.754;2023-08-20T15:21:28;44.03;35.20
65460;DHT22;52058;49.822;6.754;2023-08-20T15:23:55;43.52;35.28
65460;DHT22;52058;49.822;6.754;2023-08-20T15:26:21;43.77;35.71
65460;DHT22;52058;49.822;6.754;2023-08-20T15:28:48;43.66;35.54
65460;DHT22;52058;49.822;6.754;2023-08-20T15:31:14;43.87;35.55